Stations météo

réclame
Mon MeteoGroup
Berlin/Alexanderplatz, Allemagne (10389): Température de l'air & dewpoint: 14.09.2018 18:00:00 - 20.09.2018 18:00:00 (CEST)Berlin/Alexanderplatz, Allemagne (10389): Température de l'air -5cm: 14.09.2018 18:00:00 - 20.09.2018 18:00:00 (CEST)Berlin/Alexanderplatz, Allemagne (10389): Température de l'air -20cm & Température de l'air -100cm: 14.09.2018 18:00:00 - 20.09.2018 18:00:00 (CEST)Berlin/Alexanderplatz, Allemagne (10389): Ensoleillement: 14.09.2018 18:00:00 - 20.09.2018 18:00:00 (CEST)Berlin/Alexanderplatz, Allemagne (10389): Quantités de précipitations: 14.09.2018 18:00:00 - 20.09.2018 18:00:00 (CEST)
Date & Time tt [°C] td [°C] tt -5cm [°C] tt -20cm [°C] tt -100cm [°C] sd [min] rr [mm]
20.09.2018 18:00:00 - - - - - - -
20.09.2018 17:00:00 - - - - - - -
20.09.2018 16:00:00 - - - - - - -
20.09.2018 15:00:00 - - - - - - -
20.09.2018 14:00:00 - - - - - - -
20.09.2018 13:00:00 - - - - - - -
20.09.2018 12:00:00 - - - - - - -
20.09.2018 11:00:00 - - - - - - -
20.09.2018 10:00:00 - - - - - - -
20.09.2018 09:00:00 - - - - - - -
20.09.2018 08:00:00 - - - - - - -
20.09.2018 07:00:00 - - - - - - -
20.09.2018 06:00:00 - - - - - - -
20.09.2018 05:00:00 - - - - - - -
20.09.2018 04:00:00 - - - - - - -
20.09.2018 03:00:00 - - - - - - -
20.09.2018 02:00:00 22,4 12,1 17,8 21,0 19,7 0 0,0
20.09.2018 01:00:00 21,5 12,4 18,4 21,2 19,7 0 0,0
20.09.2018 00:00:00 23,2 12,2 19,2 21,7 19,7 0 0,0
19.09.2018 23:00:00 24,0 12,3 20,0 21,9 19,7 0 0,0
19.09.2018 22:00:00 23,9 12,5 21,0 22,0 19,7 0 0,0
19.09.2018 21:00:00 24,9 12,1 22,3 22,2 19,7 0 0,0
19.09.2018 20:00:00 25,9 12,0 24,3 22,4 19,7 0 0,0
19.09.2018 19:00:00 27,2 12,0 27,2 22,4 19,7 0 0,0
19.09.2018 18:00:00 28,4 11,5 30,8 22,0 19,7 54 0,0
19.09.2018 17:00:00 29,1 11,6 35,0 21,5 19,7 60 0,0
19.09.2018 16:00:00 28,7 11,7 36,5 20,7 19,7 58 0,0
19.09.2018 15:00:00 28,5 12,4 37,2 19,7 19,7 60 0,0
19.09.2018 14:00:00 26,4 12,8 34,7 19,1 19,7 60 0,0
19.09.2018 13:00:00 25,1 13,0 28,4 18,7 19,7 60 0,0
19.09.2018 12:00:00 23,6 12,6 21,9 18,5 19,7 50 0,0
19.09.2018 11:00:00 22,6 13,4 18,4 18,4 19,7 0 0,0
19.09.2018 10:00:00 21,2 13,4 16,5 18,5 19,7 0 0,0
19.09.2018 09:00:00 19,3 13,0 14,9 18,6 19,7 0 0,0
19.09.2018 08:00:00 18,1 12,8 14,2 18,7 19,7 0 0,0
19.09.2018 07:00:00 17,5 12,4 14,2 18,9 19,7 0 0,0
19.09.2018 06:00:00 17,8 12,3 14,6 19,1 19,7 0 0,0
19.09.2018 05:00:00 18,9 11,9 14,8 19,3 19,7 0 0,0
19.09.2018 04:00:00 20,0 10,7 15,0 19,5 19,7 0 0,0
19.09.2018 03:00:00 21,3 10,2 15,1 19,7 19,7 0 0,0
19.09.2018 02:00:00 20,0 10,1 15,5 19,9 19,7 0 0,0
19.09.2018 01:00:00 20,6 9,5 15,9 20,2 19,7 0 0,0
19.09.2018 00:00:00 21,4 9,3 16,3 20,4 19,7 0 0,0
18.09.2018 23:00:00 22,1 9,3 17,0 20,7 19,7 0 0,0
18.09.2018 22:00:00 23,5 9,1 17,9 20,9 19,7 0 0,0
18.09.2018 21:00:00 24,4 8,4 18,9 21,2 19,7 0 0,0
18.09.2018 20:00:00 26,0 8,0 20,5 21,2 19,7 0 0,0
18.09.2018 19:00:00 27,6 7,4 22,6 21,4 19,7 0 0,0
18.09.2018 18:00:00 29,7 5,7 26,0 21,2 19,7 55 0,0
18.09.2018 17:00:00 30,7 9,0 29,4 20,7 19,7 60 0,0
18.09.2018 16:00:00 30,7 9,6 30,5 20,2 19,7 59 0,0
18.09.2018 15:00:00 30,3 8,7 31,7 19,7 19,7 60 0,0
18.09.2018 14:00:00 29,5 9,6 31,1 18,9 19,7 60 0,0
18.09.2018 13:00:00 27,9 11,4 27,5 18,5 19,7 60 0,0
18.09.2018 12:00:00 25,1 11,6 20,6 18,4 19,7 51 0,0
18.09.2018 11:00:00 21,3 11,0 16,5 18,4 19,7 15 0,0
18.09.2018 10:00:00 17,5 10,4 15,4 18,5 19,7 0 0,0
18.09.2018 09:00:00 16,0 10,1 14,6 18,7 19,7 0 0,0
18.09.2018 08:00:00 14,9 9,7 14,0 18,9 19,7 0 5,1
18.09.2018 07:00:00 14,3 9,3 13,8 19,0 19,7 0 1,2
18.09.2018 06:00:00 15,1 9,2 14,1 19,2 19,7 0 0,0
18.09.2018 05:00:00 15,7 9,1 14,5 19,5 19,7 0 0,0
18.09.2018 04:00:00 16,0 9,4 14,8 19,7 19,7 0 0,0
18.09.2018 03:00:00 16,4 9,1 15,2 20,0 19,7 0 0,0
18.09.2018 02:00:00 16,8 9,7 15,9 20,2 19,7 0 0,0
18.09.2018 01:00:00 17,7 9,3 16,5 20,5 19,7 0 0,0
18.09.2018 00:00:00 18,2 9,5 17,3 20,7 19,7 0 0,0
17.09.2018 23:00:00 18,8 9,3 18,3 21,0 19,7 0 0,0
17.09.2018 22:00:00 19,6 8,3 19,6 21,4 19,7 0 0,0
17.09.2018 21:00:00 20,9 7,9 21,4 21,7 19,7 0 0,0
17.09.2018 20:00:00 22,7 6,9 24,0 21,7 19,8 0 0,0
17.09.2018 19:00:00 24,9 5,1 27,3 21,7 19,7 0 0,0
17.09.2018 18:00:00 26,4 4,8 31,1 21,2 19,7 55 0,0
17.09.2018 17:00:00 27,0 4,7 33,9 20,7 19,9 47 0,0
17.09.2018 16:00:00 26,6 5,5 35,7 19,7 19,9 60 0,0
17.09.2018 15:00:00 27,4 5,6 36,7 18,9 19,9 60 0,0
17.09.2018 14:00:00 27,0 6,9 33,0 18,2 19,9 60 0,0
17.09.2018 13:00:00 24,9 7,5 26,4 17,7 19,9 60 0,0
17.09.2018 12:00:00 23,3 8,2 19,5 17,7 19,9 41 0,0
17.09.2018 11:00:00 21,3 7,9 15,4 17,7 19,9 17 0,0
17.09.2018 10:00:00 18,5 8,5 13,1 17,7 19,9 3 0,0
17.09.2018 09:00:00 15,3 8,3 12,1 18,0 19,9 0 0,0
17.09.2018 08:00:00 13,2 8,1 11,8 18,2 19,9 0 0,0
17.09.2018 07:00:00 12,9 8,4 11,9 18,4 19,9 0 0,0
17.09.2018 06:00:00 13,2 8,5 12,4 18,7 19,9 0 0,0
17.09.2018 05:00:00 13,6 8,9 13,0 18,9 19,9 0 0,0
17.09.2018 04:00:00 14,2 9,6 13,8 19,0 19,9 0 -
17.09.2018 03:00:00 14,8 9,6 14,6 19,2 19,9 0 -
17.09.2018 02:00:00 15,9 10,0 15,3 19,5 20,0 0 -
17.09.2018 01:00:00 16,3 9,7 15,7 19,7 20,0 0 -
17.09.2018 00:00:00 16,6 9,8 16,0 19,9 20,0 0 -
16.09.2018 23:00:00 17,0 9,7 16,9 20,2 20,0 0 -
16.09.2018 22:00:00 18,0 9,4 18,1 20,4 20,0 0 -
16.09.2018 21:00:00 18,6 8,8 19,5 20,5 20,0 0 -
16.09.2018 20:00:00 19,5 8,5 21,5 20,7 20,0 0 -
16.09.2018 19:00:00 20,8 8,1 24,0 20,4 20,0 0 -
16.09.2018 18:00:00 21,4 7,2 27,3 20,0 20,0 34 -
16.09.2018 17:00:00 21,9 7,3 30,1 19,7 20,0 48 -
16.09.2018 16:00:00 22,3 8,0 30,0 19,0 20,0 43 -
16.09.2018 15:00:00 22,7 8,8 27,4 18,7 20,0 34 -
16.09.2018 14:00:00 20,1 8,1 26,8 18,0 20,0 26 -
16.09.2018 13:00:00 20,1 8,7 23,7 17,7 20,0 38 -
16.09.2018 12:00:00 20,1 8,7 18,7 17,7 20,0 55 -
16.09.2018 11:00:00 17,3 9,5 14,9 17,7 20,0 21 -
16.09.2018 10:00:00 16,0 9,9 13,5 17,7 20,0 4 -
16.09.2018 09:00:00 14,3 9,7 12,6 18,0 20,0 0 -
16.09.2018 08:00:00 12,9 9,5 12,1 18,0 20,0 0 0,0
16.09.2018 07:00:00 12,4 9,8 12,0 18,2 20,0 0 0,0
16.09.2018 06:00:00 12,3 10,2 12,3 18,5 20,0 0 0,0
16.09.2018 05:00:00 12,8 10,2 12,7 18,7 20,2 0 0,0
16.09.2018 04:00:00 13,3 10,3 13,1 19,0 20,2 0 0,0
16.09.2018 03:00:00 13,7 10,1 13,6 19,2 20,2 0 0,0
16.09.2018 02:00:00 14,1 10,3 14,0 19,4 20,2 0 0,0
16.09.2018 01:00:00 14,3 10,3 14,9 19,7 20,2 0 0,0
16.09.2018 00:00:00 15,3 10,1 16,0 19,7 20,2 0 0,0
15.09.2018 23:00:00 15,2 10,6 17,3 20,0 20,2 0 0,1
15.09.2018 22:00:00 16,0 10,3 18,1 20,0 20,2 0 0,0
15.09.2018 21:00:00 17,1 9,3 18,8 20,2 20,2 0 0,0
15.09.2018 20:00:00 18,5 8,7 20,0 20,2 20,2 0 0,0
15.09.2018 19:00:00 19,3 8,3 21,6 20,2 20,2 0 0,0
15.09.2018 18:00:00 20,0 8,7 22,8 20,0 20,2 0 0,0
15.09.2018 17:00:00 19,9 8,3 24,1 19,9 20,2 1 0,0
15.09.2018 16:00:00 20,7 8,0 25,2 19,7 20,2 1 0,0
15.09.2018 15:00:00 20,2 7,9 26,1 19,2 20,2 7 0,0
15.09.2018 14:00:00 19,6 8,9 27,1 18,7 20,2 27 0,0
15.09.2018 13:00:00 19,4 8,7 23,7 18,4 20,2 51 0,0
15.09.2018 12:00:00 17,8 8,6 18,2 18,4 20,2 34 0,0
15.09.2018 11:00:00 17,4 8,3 15,2 18,5 20,2 39 0,0
15.09.2018 10:00:00 15,6 8,6 14,8 18,7 20,2 7 0,0
15.09.2018 09:00:00 14,7 8,6 14,5 18,7 20,2 0 0,0
15.09.2018 08:00:00 14,2 8,2 13,8 18,7 20,2 0 0,0
15.09.2018 07:00:00 14,3 8,7 13,4 19,0 20,4 0 0,0
15.09.2018 06:00:00 14,6 9,0 13,5 19,2 20,4 0 0,0
15.09.2018 05:00:00 14,6 9,8 14,3 19,4 20,4 0 0,0
15.09.2018 04:00:00 15,2 10,4 15,1 19,7 20,4 0 0,0
15.09.2018 03:00:00 15,5 10,9 15,9 19,7 20,4 0 0,0
15.09.2018 02:00:00 16,4 11,5 16,4 19,7 20,4 0 0,0
15.09.2018 01:00:00 16,0 12,0 16,3 20,0 20,4 0 0,0
15.09.2018 00:00:00 15,8 12,0 16,4 20,2 20,4 0 0,0
14.09.2018 23:00:00 16,0 12,2 16,4 20,4 20,4 0 0,0
14.09.2018 22:00:00 16,4 12,2 17,5 20,7 20,4 0 0,0
14.09.2018 21:00:00 17,5 11,7 19,0 20,7 20,5 0 0,0
14.09.2018 20:00:00 18,2 11,0 20,7 20,7 20,5 0 0,0
14.09.2018 19:00:00 19,2 8,8 22,9 20,7 20,5 6 0,0
14.09.2018 18:00:00 20,6 8,9 24,6 20,5 20,5 38 0,0

tt = Température de l'air
td = dewpoint
tt -5cm = Température de l'air -5cm
tt -20cm = Température de l'air -20cm
tt -100cm = Température de l'air -100cm
sd = Ensoleillement
rr = Quantités de précipitations

stations d'obs. à proximité